METAR Data
IDs: Format: Raw Decoded Include TAF

Data at: 2007 UTC 26 Sep 2021

EDDG 261950Z 14003KT CAVOK 18/16 Q1016 NOSIG